sensor_id;sensor_type;location;lat;lon;timestamp;pressure;altitude;pressure_sealevel;temperature;humidity
18850;BME280;4989;48.772;9.154;2023-06-22T00:03:58;98001.31;;;25.18;94.73
18850;BME280;4989;48.772;9.154;2023-06-22T00:09:01;98005.59;;;25.19;94.71
18850;BME280;4989;48.772;9.154;2023-06-22T00:14:04;98000.00;;;24.94;97.54
18850;BME280;4989;48.772;9.154;2023-06-22T00:19:07;97987.13;;;24.61;100.00
18850;BME280;4989;48.772;9.154;2023-06-22T00:24:09;98006.47;;;24.42;100.00
18850;BME280;4989;48.772;9.154;2023-06-22T00:29:11;98007.59;;;24.63;99.76
18850;BME280;4989;48.772;9.154;2023-06-22T00:34:13;98001.22;;;24.33;100.00
18850;BME280;4989;48.772;9.154;2023-06-22T00:39:15;97984.94;;;24.07;100.00
18850;BME280;4989;48.772;9.154;2023-06-22T00:44:18;97982.22;;;24.37;100.00
18850;BME280;4989;48.772;9.154;2023-06-22T00:49:21;97995.81;;;24.82;98.43
18850;BME280;4989;48.772;9.154;2023-06-22T00:54:24;98016.44;;;24.92;97.99
18850;BME280;4989;48.772;9.154;2023-06-22T00:59:28;98026.44;;;25.06;96.37
18850;BME280;4989;48.772;9.154;2023-06-22T01:04:38;98017.94;;;24.93;97.75
18850;BME280;4989;48.772;9.154;2023-06-22T01:15:18;98022.94;;;25.00;96.55
18850;BME280;4989;48.772;9.154;2023-06-22T01:20:25;98040.53;;;24.84;98.50
18850;BME280;4989;48.772;9.154;2023-06-22T01:25:43;98021.53;;;24.88;96.81
18850;BME280;4989;48.772;9.154;2023-06-22T01:30:50;98004.34;;;24.54;100.00
18850;BME280;4989;48.772;9.154;2023-06-22T01:36:04;98017.66;;;23.72;100.00
18850;BME280;4989;48.772;9.154;2023-06-22T01:41:09;98000.66;;;23.93;100.00
18850;BME280;4989;48.772;9.154;2023-06-22T01:46:14;98017.38;;;24.29;100.00
18850;BME280;4989;48.772;9.154;2023-06-22T01:51:17;98014.28;;;24.38;100.00
18850;BME280;4989;48.772;9.154;2023-06-22T01:56:19;98039.91;;;24.66;99.75
18850;BME280;4989;48.772;9.154;2023-06-22T02:01:29;98032.28;;;24.31;100.00
18850;BME280;4989;48.772;9.154;2023-06-22T02:06:37;98030.38;;;24.56;99.71
18850;BME280;4989;48.772;9.154;2023-06-22T02:11:44;98040.31;;;24.82;97.33
18850;BME280;4989;48.772;9.154;2023-06-22T02:16:50;98035.41;;;24.94;96.75
18850;BME280;4989;48.772;9.154;2023-06-22T02:21:53;98036.59;;;24.68;99.13
18850;BME280;4989;48.772;9.154;2023-06-22T02:26:55;98029.16;;;24.52;100.00
18850;BME280;4989;48.772;9.154;2023-06-22T02:31:58;98023.97;;;24.67;99.04
18850;BME280;4989;48.772;9.154;2023-06-22T02:37:00;98020.22;;;24.64;100.00
18850;BME280;4989;48.772;9.154;2023-06-22T02:42:04;98011.53;;;23.91;100.00
18850;BME280;4989;48.772;9.154;2023-06-22T02:47:07;98011.88;;;24.17;100.00
18850;BME280;4989;48.772;9.154;2023-06-22T02:52:09;97995.97;;;24.59;99.61
18850;BME280;4989;48.772;9.154;2023-06-22T02:57:12;97999.47;;;24.65;98.76
18850;BME280;4989;48.772;9.154;2023-06-22T03:02:17;97991.28;;;24.79;97.58
18850;BME280;4989;48.772;9.154;2023-06-22T03:07:20;97992.72;;;24.55;99.02
18850;BME280;4989;48.772;9.154;2023-06-22T03:12:25;97986.28;;;24.72;97.37
18850;BME280;4989;48.772;9.154;2023-06-22T03:17:29;97988.31;;;24.30;100.00
18850;BME280;4989;48.772;9.154;2023-06-22T03:22:31;97989.91;;;24.19;100.00
18850;BME280;4989;48.772;9.154;2023-06-22T03:27:33;97990.09;;;24.33;100.00
18850;BME280;4989;48.772;9.154;2023-06-22T03:32:36;97991.66;;;23.75;100.00
18850;BME280;4989;48.772;9.154;2023-06-22T03:37:40;97992.63;;;23.84;100.00
18850;BME280;4989;48.772;9.154;2023-06-22T03:42:42;97992.97;;;23.52;100.00
18850;BME280;4989;48.772;9.154;2023-06-22T03:47:44;97985.22;;;24.03;100.00
18850;BME280;4989;48.772;9.154;2023-06-22T03:52:47;97970.31;;;24.06;100.00
18850;BME280;4989;48.772;9.154;2023-06-22T03:57:49;97971.69;;;23.83;100.00
18850;BME280;4989;48.772;9.154;2023-06-22T04:02:51;97975.00;;;24.22;100.00
18850;BME280;4989;48.772;9.154;2023-06-22T04:07:54;97975.69;;;24.29;100.00
18850;BME280;4989;48.772;9.154;2023-06-22T04:12:56;97965.69;;;23.62;100.00
18850;BME280;4989;48.772;9.154;2023-06-22T04:17:58;97965.66;;;23.67;100.00
18850;BME280;4989;48.772;9.154;2023-06-22T04:23:01;97957.28;;;24.26;100.00
18850;BME280;4989;48.772;9.154;2023-06-22T04:28:03;97952.69;;;24.34;100.00
18850;BME280;4989;48.772;9.154;2023-06-22T04:33:06;97953.41;;;24.40;98.63
18850;BME280;4989;48.772;9.154;2023-06-22T04:38:08;97956.03;;;24.62;96.61
18850;BME280;4989;48.772;9.154;2023-06-22T04:43:10;97948.88;;;24.73;94.95
18850;BME280;4989;48.772;9.154;2023-06-22T04:48:13;97952.72;;;24.64;95.80
18850;BME280;4989;48.772;9.154;2023-06-22T04:53:18;97932.19;;;24.73;94.74
18850;BME280;4989;48.772;9.154;2023-06-22T04:58:20;97927.72;;;24.88;93.08
18850;BME280;4989;48.772;9.154;2023-06-22T05:03:25;97925.34;;;24.98;92.31
18850;BME280;4989;48.772;9.154;2023-06-22T05:08:28;97930.22;;;24.92;93.47
18850;BME280;4989;48.772;9.154;2023-06-22T05:13:31;97931.66;;;24.99;92.16
18850;BME280;4989;48.772;9.154;2023-06-22T05:18:33;97930.06;;;25.09;90.99
18850;BME280;4989;48.772;9.154;2023-06-22T05:23:37;97919.34;;;25.19;90.55
18850;BME280;4989;48.772;9.154;2023-06-22T05:28:39;97914.78;;;25.21;91.07
18850;BME280;4989;48.772;9.154;2023-06-22T05:33:43;97903.34;;;25.25;89.02
18850;BME280;4989;48.772;9.154;2023-06-22T05:38:46;97906.13;;;25.25;89.66
18850;BME280;4989;48.772;9.154;2023-06-22T05:43:48;97919.00;;;25.28;88.94
18850;BME280;4989;48.772;9.154;2023-06-22T05:48:50;97916.03;;;25.20;89.25
18850;BME280;4989;48.772;9.154;2023-06-22T05:53:52;97915.47;;;25.27;88.53
18850;BME280;4989;48.772;9.154;2023-06-22T05:58:54;97912.69;;;25.27;88.82
18850;BME280;4989;48.772;9.154;2023-06-22T06:03:57;97912.50;;;25.20;89.29
18850;BME280;4989;48.772;9.154;2023-06-22T06:08:59;97902.44;;;25.17;89.50
18850;BME280;4989;48.772;9.154;2023-06-22T06:14:01;97892.28;;;25.19;89.32
18850;BME280;4989;48.772;9.154;2023-06-22T06:19:03;97897.78;;;25.25;88.28
18850;BME280;4989;48.772;9.154;2023-06-22T06:24:06;97899.75;;;25.30;88.49
18850;BME280;4989;48.772;9.154;2023-06-22T06:29:08;97903.84;;;25.48;87.20
18850;BME280;4989;48.772;9.154;2023-06-22T06:34:10;97905.47;;;25.56;86.92
18850;BME280;4989;48.772;9.154;2023-06-22T06:39:13;97901.44;;;25.57;87.14
18850;BME280;4989;48.772;9.154;2023-06-22T06:44:15;97903.59;;;25.65;85.98
18850;BME280;4989;48.772;9.154;2023-06-22T06:49:17;97905.34;;;25.68;86.65
18850;BME280;4989;48.772;9.154;2023-06-22T06:54:19;97909.97;;;25.84;85.59
18850;BME280;4989;48.772;9.154;2023-06-22T06:59:22;97900.16;;;25.96;84.59
18850;BME280;4989;48.772;9.154;2023-06-22T07:04:25;97905.03;;;26.09;83.70
18850;BME280;4989;48.772;9.154;2023-06-22T07:09:27;97895.34;;;26.29;82.81
18850;BME280;4989;48.772;9.154;2023-06-22T07:14:30;97882.50;;;26.39;81.27
18850;BME280;4989;48.772;9.154;2023-06-22T07:19:33;97882.72;;;26.41;81.37
18850;BME280;4989;48.772;9.154;2023-06-22T07:24:36;97869.38;;;26.53;80.89
18850;BME280;4989;48.772;9.154;2023-06-22T07:29:39;97852.13;;;26.68;79.98
18850;BME280;4989;48.772;9.154;2023-06-22T07:34:44;97852.13;;;26.94;78.33
18850;BME280;4989;48.772;9.154;2023-06-22T07:39:46;97847.72;;;27.26;76.49
18850;BME280;4989;48.772;9.154;2023-06-22T07:44:48;97840.47;;;27.44;76.06
18850;BME280;4989;48.772;9.154;2023-06-22T07:49:52;97826.16;;;27.60;74.78
18850;BME280;4989;48.772;9.154;2023-06-22T07:54:56;97816.75;;;27.84;74.09
18850;BME280;4989;48.772;9.154;2023-06-22T08:00:05;97810.94;;;27.82;74.13
18850;BME280;4989;48.772;9.154;2023-06-22T08:05:17;97817.53;;;27.72;73.24
18850;BME280;4989;48.772;9.154;2023-06-22T08:10:24;97837.59;;;27.83;72.01
18850;BME280;4989;48.772;9.154;2023-06-22T08:15:26;97856.41;;;28.25;72.25
18850;BME280;4989;48.772;9.154;2023-06-22T08:20:31;97851.91;;;28.64;68.83
18850;BME280;4989;48.772;9.154;2023-06-22T08:25:34;97853.41;;;28.44;68.98
18850;BME280;4989;48.772;9.154;2023-06-22T08:30:36;97873.31;;;28.19;70.43
18850;BME280;4989;48.772;9.154;2023-06-22T08:35:39;97875.94;;;28.17;70.70
18850;BME280;4989;48.772;9.154;2023-06-22T08:40:41;97875.16;;;28.38;70.19
18850;BME280;4989;48.772;9.154;2023-06-22T08:45:43;97858.03;;;28.62;68.70
18850;BME280;4989;48.772;9.154;2023-06-22T08:50:46;97856.91;;;29.66;64.23
18850;BME280;4989;48.772;9.154;2023-06-22T08:55:48;97850.81;;;30.06;62.93
18850;BME280;4989;48.772;9.154;2023-06-22T09:00:52;97855.72;;;30.60;60.14
18850;BME280;4989;48.772;9.154;2023-06-22T09:05:55;97855.25;;;29.71;62.64
18850;BME280;4989;48.772;9.154;2023-06-22T09:10:57;97840.34;;;29.92;62.49
18850;BME280;4989;48.772;9.154;2023-06-22T09:16:00;97833.25;;;29.31;64.53
18850;BME280;4989;48.772;9.154;2023-06-22T09:21:02;97878.88;;;30.06;62.57
18850;BME280;4989;48.772;9.154;2023-06-22T09:26:05;97866.31;;;31.63;57.77
18850;BME280;4989;48.772;9.154;2023-06-22T09:31:08;97840.63;;;31.18;57.64
18850;BME280;4989;48.772;9.154;2023-06-22T09:36:10;97833.28;;;31.71;57.76
18850;BME280;4989;48.772;9.154;2023-06-22T09:41:12;97831.38;;;32.31;55.15
18850;BME280;4989;48.772;9.154;2023-06-22T09:46:17;97826.66;;;32.59;54.68
18850;BME280;4989;48.772;9.154;2023-06-22T09:51:20;97812.50;;;32.84;52.79
18850;BME280;4989;48.772;9.154;2023-06-22T09:56:23;97795.19;;;32.88;54.66
18850;BME280;4989;48.772;9.154;2023-06-22T10:01:28;97780.25;;;33.12;52.73
18850;BME280;4989;48.772;9.154;2023-06-22T10:06:30;97774.38;;;33.45;51.23
18850;BME280;4989;48.772;9.154;2023-06-22T10:11:33;97771.50;;;32.56;54.11
18850;BME280;4989;48.772;9.154;2023-06-22T10:16:37;97765.00;;;31.78;55.54
18850;BME280;4989;48.772;9.154;2023-06-22T10:21:39;97753.94;;;32.48;54.68
18850;BME280;4989;48.772;9.154;2023-06-22T10:26:41;97753.91;;;33.17;53.33
18850;BME280;4989;48.772;9.154;2023-06-22T10:31:43;97747.09;;;33.20;52.94
18850;BME280;4989;48.772;9.154;2023-06-22T10:36:46;97752.31;;;33.78;50.34
18850;BME280;4989;48.772;9.154;2023-06-22T10:41:50;97736.00;;;35.10;47.68
18850;BME280;4989;48.772;9.154;2023-06-22T10:46:52;97725.56;;;33.69;49.63
18850;BME280;4989;48.772;9.154;2023-06-22T10:51:55;97733.28;;;33.42;51.91
18850;BME280;4989;48.772;9.154;2023-06-22T10:56:57;97729.53;;;32.50;52.95
18850;BME280;4989;48.772;9.154;2023-06-22T11:01:59;97718.25;;;32.33;53.87
18850;BME280;4989;48.772;9.154;2023-06-22T11:07:02;97723.28;;;32.17;54.90
18850;BME280;4989;48.772;9.154;2023-06-22T11:12:05;97722.00;;;32.10;55.14
18850;BME280;4989;48.772;9.154;2023-06-22T11:17:08;97739.88;;;31.80;56.27
18850;BME280;4989;48.772;9.154;2023-06-22T11:22:10;97747.56;;;31.55;57.84
18850;BME280;4989;48.772;9.154;2023-06-22T11:27:12;97731.50;;;31.73;57.97
18850;BME280;4989;48.772;9.154;2023-06-22T11:32:15;97702.72;;;31.89;57.18
18850;BME280;4989;48.772;9.154;2023-06-22T11:37:17;97730.34;;;32.01;55.52
18850;BME280;4989;48.772;9.154;2023-06-22T11:42:19;97715.34;;;32.58;53.38
18850;BME280;4989;48.772;9.154;2023-06-22T11:47:21;97715.25;;;32.31;53.14
18850;BME280;4989;48.772;9.154;2023-06-22T11:52:23;97709.38;;;32.02;55.81
18850;BME280;4989;48.772;9.154;2023-06-22T11:57:26;97713.50;;;31.51;57.67
18850;BME280;4989;48.772;9.154;2023-06-22T12:02:28;97725.78;;;31.63;54.80
18850;BME280;4989;48.772;9.154;2023-06-22T12:07:31;97723.09;;;32.15;54.88
18850;BME280;4989;48.772;9.154;2023-06-22T12:12:33;97728.88;;;32.00;57.18
18850;BME280;4989;48.772;9.154;2023-06-22T12:17:35;97714.88;;;31.67;56.82
18850;BME280;4989;48.772;9.154;2023-06-22T12:22:37;97706.31;;;31.82;59.28
18850;BME280;4989;48.772;9.154;2023-06-22T12:27:40;97705.03;;;32.01;57.79
18850;BME280;4989;48.772;9.154;2023-06-22T12:32:42;97720.25;;;31.47;58.89
18850;BME280;4989;48.772;9.154;2023-06-22T12:37:45;97726.66;;;31.40;60.52
18850;BME280;4989;48.772;9.154;2023-06-22T12:42:47;97734.34;;;31.40;59.78
18850;BME280;4989;48.772;9.154;2023-06-22T12:47:49;97740.94;;;31.35;60.74
18850;BME280;4989;48.772;9.154;2023-06-22T12:52:52;97754.41;;;31.36;61.02
18850;BME280;4989;48.772;9.154;2023-06-22T12:57:54;97761.97;;;31.18;60.65
18850;BME280;4989;48.772;9.154;2023-06-22T13:02:57;97760.97;;;31.39;60.74
18850;BME280;4989;48.772;9.154;2023-06-22T13:07:59;97747.84;;;31.41;59.04
18850;BME280;4989;48.772;9.154;2023-06-22T13:13:01;97736.75;;;31.43;59.59
18850;BME280;4989;48.772;9.154;2023-06-22T13:18:04;97725.94;;;31.32;61.91
18850;BME280;4989;48.772;9.154;2023-06-22T13:23:06;97716.59;;;31.30;61.56
18850;BME280;4989;48.772;9.154;2023-06-22T13:28:08;97706.06;;;31.38;61.75
18850;BME280;4989;48.772;9.154;2023-06-22T13:33:28;97696.00;;;31.60;61.97
18850;BME280;4989;48.772;9.154;2023-06-22T13:38:30;97688.22;;;31.68;60.67
18850;BME280;4989;48.772;9.154;2023-06-22T13:43:34;97691.97;;;31.45;60.90
18850;BME280;4989;48.772;9.154;2023-06-22T13:48:36;97690.38;;;31.60;60.95
18850;BME280;4989;48.772;9.154;2023-06-22T13:53:38;97668.72;;;31.70;59.17
18850;BME280;4989;48.772;9.154;2023-06-22T13:58:40;97649.91;;;31.80;59.40
18850;BME280;4989;48.772;9.154;2023-06-22T14:03:42;97644.00;;;32.11;57.50
18850;BME280;4989;48.772;9.154;2023-06-22T14:08:47;97643.50;;;32.22;57.68
18850;BME280;4989;48.772;9.154;2023-06-22T14:13:49;97636.84;;;33.06;54.67
18850;BME280;4989;48.772;9.154;2023-06-22T14:18:51;97629.75;;;34.18;51.87
18850;BME280;4989;48.772;9.154;2023-06-22T14:23:57;97634.13;;;33.72;50.94
18850;BME280;4989;48.772;9.154;2023-06-22T14:28:59;97625.34;;;32.68;53.66
18850;BME280;4989;48.772;9.154;2023-06-22T14:34:02;97629.84;;;32.53;50.70
18850;BME280;4989;48.772;9.154;2023-06-22T14:39:05;97645.66;;;32.49;50.37
18850;BME280;4989;48.772;9.154;2023-06-22T14:44:07;97643.34;;;32.82;47.92
18850;BME280;4989;48.772;9.154;2023-06-22T14:49:10;97644.81;;;33.00;49.64
18850;BME280;4989;48.772;9.154;2023-06-22T14:54:12;97623.25;;;33.22;47.38
18850;BME280;4989;48.772;9.154;2023-06-22T14:59:14;97627.19;;;33.00;48.13
18850;BME280;4989;48.772;9.154;2023-06-22T15:04:16;97618.34;;;32.42;45.23
18850;BME280;4989;48.772;9.154;2023-06-22T15:09:19;97627.13;;;32.11;47.76
18850;BME280;4989;48.772;9.154;2023-06-22T15:14:21;97611.72;;;32.47;40.45
18850;BME280;4989;48.772;9.154;2023-06-22T15:19:23;97591.00;;;32.52;40.29
18850;BME280;4989;48.772;9.154;2023-06-22T15:24:26;97598.63;;;32.42;45.26
18850;BME280;4989;48.772;9.154;2023-06-22T15:29:28;97598.78;;;32.44;40.37
18850;BME280;4989;48.772;9.154;2023-06-22T15:34:36;97597.81;;;32.49;40.81
18850;BME280;4989;48.772;9.154;2023-06-22T15:39:38;97595.19;;;32.16;39.34
18850;BME280;4989;48.772;9.154;2023-06-22T15:44:40;97591.38;;;32.21;43.02
18850;BME280;4989;48.772;9.154;2023-06-22T15:49:42;97592.19;;;32.49;39.77
18850;BME280;4989;48.772;9.154;2023-06-22T15:54:45;97583.72;;;32.31;44.65
18850;BME280;4989;48.772;9.154;2023-06-22T15:59:48;97588.06;;;31.80;41.46
18850;BME280;4989;48.772;9.154;2023-06-22T16:04:50;97591.94;;;31.85;44.97
18850;BME280;4989;48.772;9.154;2023-06-22T16:09:52;97595.31;;;31.66;41.53
18850;BME280;4989;48.772;9.154;2023-06-22T16:14:55;97608.66;;;31.40;45.71
18850;BME280;4989;48.772;9.154;2023-06-22T16:19:57;97604.56;;;31.09;41.85
18850;BME280;4989;48.772;9.154;2023-06-22T16:25:01;97600.34;;;30.92;45.12
18850;BME280;4989;48.772;9.154;2023-06-22T16:30:06;97593.31;;;30.76;43.06
18850;BME280;4989;48.772;9.154;2023-06-22T16:35:09;97540.50;;;30.57;44.27
18850;BME280;4989;48.772;9.154;2023-06-22T16:40:11;97532.72;;;30.73;45.09
18850;BME280;4989;48.772;9.154;2023-06-22T16:45:14;97496.53;;;30.60;44.76
18850;BME280;4989;48.772;9.154;2023-06-22T16:50:19;97474.06;;;30.60;44.97
18850;BME280;4989;48.772;9.154;2023-06-22T16:55:23;97520.22;;;30.41;46.08
18850;BME280;4989;48.772;9.154;2023-06-22T17:00:26;97541.94;;;30.33;45.59
18850;BME280;4989;48.772;9.154;2023-06-22T17:05:31;97559.19;;;30.22;46.04
18850;BME280;4989;48.772;9.154;2023-06-22T17:10:33;97573.81;;;30.05;48.37
18850;BME280;4989;48.772;9.154;2023-06-22T17:15:37;97573.88;;;29.82;48.89
18850;BME280;4989;48.772;9.154;2023-06-22T17:20:40;97592.56;;;29.87;47.29
18850;BME280;4989;48.772;9.154;2023-06-22T17:25:45;97586.03;;;29.77;49.67
18850;BME280;4989;48.772;9.154;2023-06-22T17:31:09;97595.53;;;29.58;48.04
18850;BME280;4989;48.772;9.154;2023-06-22T17:36:13;97597.63;;;29.42;50.32
18850;BME280;4989;48.772;9.154;2023-06-22T17:41:16;97605.63;;;29.15;47.94
18850;BME280;4989;48.772;9.154;2023-06-22T17:46:18;97622.38;;;28.92;48.15
18850;BME280;4989;48.772;9.154;2023-06-22T17:56:52;97645.72;;;28.43;49.69
18850;BME280;4989;48.772;9.154;2023-06-22T18:01:54;97659.97;;;28.24;50.49
18850;BME280;4989;48.772;9.154;2023-06-22T18:06:56;97642.50;;;28.03;51.49
18850;BME280;4989;48.772;9.154;2023-06-22T18:12:02;97639.63;;;27.88;51.33
18850;BME280;4989;48.772;9.154;2023-06-22T18:17:06;97666.41;;;27.62;51.39
18850;BME280;4989;48.772;9.154;2023-06-22T18:22:08;97686.09;;;27.35;52.44
18850;BME280;4989;48.772;9.154;2023-06-22T18:27:13;97672.31;;;27.16;53.24
18850;BME280;4989;48.772;9.154;2023-06-22T18:32:17;97645.38;;;27.19;54.05
18850;BME280;4989;48.772;9.154;2023-06-22T18:37:19;97612.09;;;26.87;55.45
18850;BME280;4989;48.772;9.154;2023-06-22T18:42:22;97585.75;;;26.75;56.01
18850;BME280;4989;48.772;9.154;2023-06-22T18:47:31;97592.41;;;26.24;58.49
18850;BME280;4989;48.772;9.154;2023-06-22T18:52:35;97625.22;;;26.18;59.28
18850;BME280;4989;48.772;9.154;2023-06-22T18:57:40;97655.03;;;25.96;60.21
18850;BME280;4989;48.772;9.154;2023-06-22T19:02:45;97658.22;;;26.00;60.53
18850;BME280;4989;48.772;9.154;2023-06-22T19:13:29;97678.38;;;26.07;59.85
18850;BME280;4989;48.772;9.154;2023-06-22T19:18:39;97675.47;;;26.25;63.64
18850;BME280;4989;48.772;9.154;2023-06-22T19:23:44;97663.06;;;26.26;59.24
18850;BME280;4989;48.772;9.154;2023-06-22T19:28:53;97689.72;;;25.95;61.18
18850;BME280;4989;48.772;9.154;2023-06-22T19:34:05;97694.56;;;25.63;62.25
18850;BME280;4989;48.772;9.154;2023-06-22T19:39:08;97695.19;;;25.23;64.89
18850;BME280;4989;48.772;9.154;2023-06-22T19:44:10;97705.56;;;25.04;66.83
18850;BME280;4989;48.772;9.154;2023-06-22T19:49:15;97716.06;;;24.73;69.53
18850;BME280;4989;48.772;9.154;2023-06-22T19:54:19;97717.78;;;24.57;71.18
18850;BME280;4989;48.772;9.154;2023-06-22T19:59:22;97728.22;;;24.51;72.09
18850;BME280;4989;48.772;9.154;2023-06-22T20:04:26;97723.25;;;24.44;74.67
18850;BME280;4989;48.772;9.154;2023-06-22T20:09:28;97745.84;;;24.29;75.20
18850;BME280;4989;48.772;9.154;2023-06-22T20:14:34;97755.00;;;24.24;76.48
18850;BME280;4989;48.772;9.154;2023-06-22T20:19:38;97758.88;;;24.40;76.95
18850;BME280;4989;48.772;9.154;2023-06-22T20:24:45;97749.25;;;24.47;77.76
18850;BME280;4989;48.772;9.154;2023-06-22T20:29:48;97753.91;;;24.33;79.76
18850;BME280;4989;48.772;9.154;2023-06-22T20:34:50;97761.72;;;24.10;81.70
18850;BME280;4989;48.772;9.154;2023-06-22T20:39:52;97771.94;;;24.20;82.55
18850;BME280;4989;48.772;9.154;2023-06-22T20:44:54;97788.88;;;24.47;81.35
18850;BME280;4989;48.772;9.154;2023-06-22T20:49:57;97801.59;;;24.37;82.39
18850;BME280;4989;48.772;9.154;2023-06-22T20:55:01;97816.56;;;24.58;81.82
18850;BME280;4989;48.772;9.154;2023-06-22T21:00:04;97820.06;;;24.64;81.19
18850;BME280;4989;48.772;9.154;2023-06-22T21:05:10;97846.81;;;24.67;80.37
18850;BME280;4989;48.772;9.154;2023-06-22T21:10:14;97820.84;;;24.84;80.08
18850;BME280;4989;48.772;9.154;2023-06-22T21:15:17;97829.56;;;25.37;76.46
18850;BME280;4989;48.772;9.154;2023-06-22T21:20:19;97820.59;;;25.82;74.79
18850;BME280;4989;48.772;9.154;2023-06-22T21:25:21;97830.13;;;24.67;79.35
18850;BME280;4989;48.772;9.154;2023-06-22T21:30:23;97861.25;;;24.36;79.63
18850;BME280;4989;48.772;9.154;2023-06-22T21:35:27;97863.16;;;23.81;81.11
18850;BME280;4989;48.772;9.154;2023-06-22T21:40:29;97885.47;;;23.69;80.39
18850;BME280;4989;48.772;9.154;2023-06-22T21:45:31;97925.50;;;23.10;82.35
18850;BME280;4989;48.772;9.154;2023-06-22T21:50:36;97935.59;;;23.02;83.11
18850;BME280;4989;48.772;9.154;2023-06-22T21:55:38;97955.25;;;23.15;82.20
18850;BME280;4989;48.772;9.154;2023-06-22T22:00:41;97972.88;;;23.23;80.58
18850;BME280;4989;48.772;9.154;2023-06-22T22:05:43;97988.28;;;23.19;80.69
18850;BME280;4989;48.772;9.154;2023-06-22T22:10:47;97984.13;;;23.59;78.10
18850;BME280;4989;48.772;9.154;2023-06-22T22:15:49;97971.84;;;23.26;78.47
18850;BME280;4989;48.772;9.154;2023-06-22T22:20:53;97971.81;;;23.43;82.73
18850;BME280;4989;48.772;9.154;2023-06-22T22:25:55;97983.19;;;23.34;81.27
18850;BME280;4989;48.772;9.154;2023-06-22T22:30:58;97977.94;;;23.14;79.08
18850;BME280;4989;48.772;9.154;2023-06-22T22:36:02;97975.44;;;22.99;80.83
18850;BME280;4989;48.772;9.154;2023-06-22T22:41:07;97971.91;;;22.59;85.64
18850;BME280;4989;48.772;9.154;2023-06-22T22:46:09;97983.22;;;22.27;86.34
18850;BME280;4989;48.772;9.154;2023-06-22T22:51:11;97985.44;;;22.12;87.41
18850;BME280;4989;48.772;9.154;2023-06-22T22:56:13;97974.28;;;21.89;89.65
18850;BME280;4989;48.772;9.154;2023-06-22T23:01:16;97978.88;;;22.04;89.24
18850;BME280;4989;48.772;9.154;2023-06-22T23:06:18;97981.63;;;21.98;89.75
18850;BME280;4989;48.772;9.154;2023-06-22T23:11:27;97979.84;;;21.89;90.74
18850;BME280;4989;48.772;9.154;2023-06-22T23:16:29;97976.34;;;21.94;90.00
18850;BME280;4989;48.772;9.154;2023-06-22T23:21:32;97981.09;;;22.00;90.33
18850;BME280;4989;48.772;9.154;2023-06-22T23:26:34;97993.03;;;22.28;88.80
18850;BME280;4989;48.772;9.154;2023-06-22T23:31:37;97977.13;;;22.06;91.37
18850;BME280;4989;48.772;9.154;2023-06-22T23:36:39;97969.00;;;21.80;93.74
18850;BME280;4989;48.772;9.154;2023-06-22T23:41:41;97981.31;;;21.79;94.91
18850;BME280;4989;48.772;9.154;2023-06-22T23:46:44;97976.53;;;21.80;95.42
18850;BME280;4989;48.772;9.154;2023-06-22T23:51:46;97983.56;;;21.69;97.20
18850;BME280;4989;48.772;9.154;2023-06-22T23:56:51;97984.75;;;21.63;97.53
